createdAt,value
2018-06-16T00:00:16.746Z,0
2018-06-16T00:00:57.210Z,0
2018-06-16T00:01:37.723Z,0
2018-06-16T00:02:18.198Z,0
2018-06-16T00:02:58.736Z,0
2018-06-16T00:03:39.246Z,0
2018-06-16T00:04:19.737Z,0
2018-06-16T00:05:00.232Z,0
2018-06-16T00:05:40.719Z,0
2018-06-16T00:06:21.198Z,0
2018-06-16T00:07:01.727Z,0
2018-06-16T00:07:42.183Z,0
2018-06-16T00:08:22.740Z,0
2018-06-16T00:09:03.209Z,0
2018-06-16T00:09:43.710Z,0
2018-06-16T00:10:24.235Z,0
2018-06-16T00:11:04.717Z,0
2018-06-16T00:11:45.196Z,0
2018-06-16T00:12:25.689Z,0
2018-06-16T00:13:06.200Z,0
2018-06-16T00:13:46.724Z,0
2018-06-16T00:14:27.248Z,0
2018-06-16T00:15:07.743Z,0
2018-06-16T00:15:48.261Z,0
2018-06-16T00:16:28.720Z,0
2018-06-16T00:17:09.378Z,0
2018-06-16T00:17:49.908Z,0
2018-06-16T00:18:30.390Z,0
2018-06-16T00:19:10.762Z,0
2018-06-16T00:19:51.264Z,0
2018-06-16T00:20:31.724Z,0
2018-06-16T00:21:12.218Z,0
2018-06-16T00:21:52.681Z,0
2018-06-16T00:22:33.175Z,0
2018-06-16T00:23:13.773Z,0
2018-06-16T00:23:54.229Z,0
2018-06-16T00:24:34.714Z,0
2018-06-16T00:25:15.284Z,0
2018-06-16T00:25:55.745Z,0
2018-06-16T00:26:36.440Z,0
2018-06-16T00:27:16.780Z,0
2018-06-16T00:27:57.305Z,0
2018-06-16T00:28:37.820Z,0
2018-06-16T00:29:18.356Z,0
2018-06-16T00:29:58.835Z,0
2018-06-16T00:30:39.282Z,0
2018-06-16T00:31:19.779Z,0
2018-06-16T00:32:00.229Z,0
2018-06-16T00:32:40.714Z,0
2018-06-16T00:33:21.232Z,0
2018-06-16T00:34:01.719Z,0
2018-06-16T00:34:42.232Z,0
2018-06-16T00:35:22.761Z,0
2018-06-16T00:36:03.323Z,0
2018-06-16T00:38:16.603Z,0
2018-06-16T00:38:57.090Z,0
2018-06-16T00:39:37.640Z,0
2018-06-16T00:40:18.094Z,0
2018-06-16T00:40:58.567Z,0
2018-06-16T00:41:39.085Z,0
2018-06-16T00:42:19.579Z,0
2018-06-16T00:43:00.090Z,0
2018-06-16T00:43:40.594Z,0
2018-06-16T00:44:21.085Z,0
2018-06-16T00:45:01.613Z,0
2018-06-16T00:45:42.101Z,0
2018-06-16T00:46:22.590Z,0
2018-06-16T00:47:03.071Z,0
2018-06-16T00:47:43.583Z,0
2018-06-16T00:48:24.090Z,0
2018-06-16T00:49:04.590Z,0
2018-06-16T00:49:45.096Z,0
2018-06-16T00:50:25.596Z,0
2018-06-16T00:51:06.094Z,0
2018-06-16T00:51:46.578Z,0
2018-06-16T00:52:27.100Z,0
2018-06-16T00:53:07.613Z,0
2018-06-16T00:53:48.106Z,0
2018-06-16T00:54:28.547Z,0
2018-06-16T00:55:09.106Z,0
2018-06-16T00:55:49.594Z,0
2018-06-16T00:56:30.080Z,0
2018-06-16T00:57:10.584Z,0
2018-06-16T00:57:51.086Z,0
2018-06-16T00:58:31.574Z,0
2018-06-16T00:59:12.022Z,0
2018-06-16T00:59:52.551Z,0
2018-06-16T01:00:33.039Z,0
2018-06-16T01:01:13.524Z,0
2018-06-16T01:01:54.018Z,0
2018-06-16T01:02:34.539Z,0
2018-06-16T01:03:15.069Z,0
2018-06-16T01:03:55.562Z,0
2018-06-16T01:04:36.070Z,0
2018-06-16T01:05:16.595Z,0
2018-06-16T01:05:57.066Z,0
2018-06-16T01:06:37.571Z,0
2018-06-16T01:07:18.093Z,0
2018-06-16T01:07:58.570Z,0
2018-06-16T01:08:39.121Z,0
2018-06-16T01:09:19.633Z,0
2018-06-16T01:10:00.138Z,0
2018-06-16T01:10:40.599Z,0
2018-06-16T01:11:21.092Z,0
2018-06-16T01:12:01.603Z,0
2018-06-16T01:12:42.086Z,0
2018-06-16T01:13:22.617Z,0
2018-06-16T01:14:03.125Z,0
2018-06-16T01:14:43.696Z,0
2018-06-16T01:15:24.213Z,0
2018-06-16T01:16:04.745Z,0
2018-06-16T01:16:45.197Z,0
2018-06-16T01:17:25.966Z,0
2018-06-16T01:18:06.486Z,0
2018-06-16T01:18:46.956Z,0
2018-06-16T01:19:27.374Z,0
2018-06-16T01:20:07.878Z,0
2018-06-16T01:20:48.541Z,0
2018-06-16T01:21:28.906Z,0
2018-06-16T01:22:09.524Z,0
2018-06-16T01:22:49.969Z,0
2018-06-16T01:23:30.381Z,0
2018-06-16T01:24:10.917Z,0
2018-06-16T01:24:51.531Z,0
2018-06-16T01:25:32.124Z,0
2018-06-16T01:26:12.615Z,0
2018-06-16T01:26:53.036Z,0
2018-06-16T01:27:33.563Z,0
2018-06-16T01:28:14.157Z,0
2018-06-16T01:28:54.677Z,0
2018-06-16T01:29:35.130Z,0
2018-06-16T01:30:15.526Z,0
2018-06-16T01:30:56.017Z,0
2018-06-16T01:31:36.548Z,0
2018-06-16T01:32:17.061Z,0
2018-06-16T01:32:57.521Z,0
2018-06-16T01:33:38.165Z,0
2018-06-16T01:34:18.686Z,0
2018-06-16T01:34:59.136Z,0
2018-06-16T01:35:39.672Z,0
2018-06-16T01:36:20.081Z,0
2018-06-16T01:37:00.612Z,0
2018-06-16T01:37:41.060Z,0
2018-06-16T01:38:21.557Z,0
2018-06-16T01:39:02.045Z,0
2018-06-16T01:39:42.567Z,0
2018-06-16T01:40:23.101Z,0
2018-06-16T01:41:03.563Z,0
2018-06-16T01:41:44.065Z,0
2018-06-16T01:42:24.550Z,0
2018-06-16T01:43:05.049Z,0
2018-06-16T01:43:45.559Z,0
2018-06-16T01:44:26.054Z,0
2018-06-16T01:45:06.553Z,0
2018-06-16T01:45:47.056Z,0
2018-06-16T01:46:27.578Z,0
2018-06-16T01:47:08.084Z,0
2018-06-16T01:47:48.643Z,0
2018-06-16T01:48:29.165Z,0
2018-06-16T01:49:09.647Z,0
2018-06-16T01:49:50.161Z,0
2018-06-16T01:50:30.644Z,0
2018-06-16T01:51:11.225Z,0
2018-06-16T01:51:51.745Z,0
2018-06-16T01:52:32.251Z,0
2018-06-16T01:53:12.811Z,0
2018-06-16T01:53:53.253Z,0
2018-06-16T01:54:33.853Z,0
2018-06-16T01:55:14.409Z,0
2018-06-16T01:55:54.877Z,0
2018-06-16T01:56:35.403Z,0
2018-06-16T01:57:15.930Z,0
2018-06-16T01:57:56.461Z,0
2018-06-16T01:58:36.954Z,0
2018-06-16T01:59:17.507Z,0
2018-06-16T01:59:57.969Z,0
2018-06-16T02:00:38.456Z,0
2018-06-16T02:01:18.963Z,0
2018-06-16T02:01:59.514Z,0
2018-06-16T02:02:40.036Z,0
2018-06-16T02:03:20.547Z,0
2018-06-16T02:04:01.052Z,0
2018-06-16T02:04:41.583Z,0
2018-06-16T02:05:22.095Z,0
2018-06-16T02:06:02.587Z,0
2018-06-16T02:06:43.093Z,0
2018-06-16T02:07:23.600Z,0
2018-06-16T02:08:04.127Z,0
2018-06-16T02:08:44.690Z,0
2018-06-16T02:09:25.142Z,0
2018-06-16T02:10:05.650Z,0
2018-06-16T02:10:46.157Z,0
2018-06-16T02:11:26.615Z,0
2018-06-16T02:12:07.132Z,0
2018-06-16T02:12:47.642Z,0
2018-06-16T02:13:28.098Z,0
2018-06-16T02:14:08.589Z,0
2018-06-16T02:14:49.070Z,0
2018-06-16T02:15:29.673Z,0
2018-06-16T02:16:10.182Z,0
2018-06-16T02:16:50.686Z,0
2018-06-16T02:17:31.346Z,0
2018-06-16T02:18:11.821Z,0
2018-06-16T02:18:52.417Z,0
2018-06-16T02:19:32.942Z,0
2018-06-16T02:20:13.458Z,0
2018-06-16T02:20:53.941Z,0
2018-06-16T02:21:35.673Z,0
2018-06-16T02:22:14.992Z,0
2018-06-16T02:22:55.438Z,0
2018-06-16T02:23:35.933Z,0
2018-06-16T02:24:16.401Z,0
2018-06-16T02:24:56.882Z,0
2018-06-16T02:25:37.378Z,0
2018-06-16T02:26:17.869Z,0
2018-06-16T02:26:58.386Z,0
2018-06-16T02:27:38.885Z,0
2018-06-16T02:28:19.369Z,0
2018-06-16T02:28:59.893Z,0
2018-06-16T02:29:40.406Z,0
2018-06-16T02:30:20.861Z,0
2018-06-16T02:31:01.442Z,0
2018-06-16T02:31:41.900Z,0
2018-06-16T02:32:22.389Z,0
2018-06-16T02:33:02.900Z,0
2018-06-16T02:33:43.442Z,0
2018-06-16T02:34:23.921Z,0
2018-06-16T02:35:04.424Z,0
2018-06-16T02:35:44.914Z,0
2018-06-16T02:36:25.431Z,0
2018-06-16T02:37:05.936Z,0
2018-06-16T02:37:46.387Z,0
2018-06-16T02:38:26.901Z,0
2018-06-16T02:39:07.417Z,4
2018-06-16T02:39:47.947Z,4
2018-06-16T02:40:28.433Z,4
2018-06-16T02:41:08.921Z,4
2018-06-16T02:41:49.412Z,0
2018-06-16T02:42:29.997Z,0
2018-06-16T02:43:10.449Z,0
2018-06-16T02:43:51.024Z,4
2018-06-16T02:44:31.464Z,4
2018-06-16T02:45:11.955Z,4
2018-06-16T02:45:52.451Z,4
2018-06-16T02:46:32.961Z,4
2018-06-16T02:47:13.505Z,4
2018-06-16T02:47:53.965Z,4
2018-06-16T02:48:34.471Z,4
2018-06-16T02:49:14.993Z,8
2018-06-16T02:49:55.513Z,4
2018-06-16T02:50:36.228Z,8
2018-06-16T02:51:16.585Z,4
2018-06-16T02:51:57.084Z,8
2018-06-16T02:52:37.551Z,8
2018-06-16T02:53:18.007Z,12
2018-06-16T02:53:58.524Z,8
2018-06-16T02:54:39.018Z,8
2018-06-16T02:55:19.524Z,12
2018-06-16T02:56:00.011Z,12
2018-06-16T02:56:40.541Z,12
2018-06-16T02:57:21.058Z,16
2018-06-16T02:58:01.524Z,16
2018-06-16T02:58:42.090Z,16
2018-06-16T02:59:22.539Z,20
2018-06-16T03:00:03.053Z,20
2018-06-16T03:00:43.554Z,24
2018-06-16T03:01:24.041Z,24
2018-06-16T03:02:04.509Z,28
2018-06-16T03:02:44.975Z,28
2018-06-16T03:03:25.660Z,32
2018-06-16T03:04:05.953Z,36
2018-06-16T03:04:46.433Z,40
2018-06-16T03:05:26.924Z,40
2018-06-16T03:06:07.437Z,44
2018-06-16T03:06:47.940Z,44
2018-06-16T03:07:28.392Z,48
2018-06-16T03:08:08.864Z,56
2018-06-16T03:08:49.414Z,56
2018-06-16T03:09:29.880Z,60
2018-06-16T03:10:10.398Z,68
2018-06-16T03:10:50.889Z,68
2018-06-16T03:11:31.424Z,72
2018-06-16T03:12:11.964Z,80
2018-06-16T03:12:52.481Z,80
2018-06-16T03:13:32.980Z,88
2018-06-16T03:14:13.490Z,92
2018-06-16T03:14:54.019Z,96
2018-06-16T03:15:34.471Z,100
2018-06-16T03:16:15.023Z,104
2018-06-16T03:16:55.577Z,112
2018-06-16T03:17:36.047Z,116
2018-06-16T03:18:16.558Z,120
2018-06-16T03:18:57.033Z,124
2018-06-16T03:19:37.553Z,136
2018-06-16T03:20:17.989Z,144
2018-06-16T03:20:58.500Z,148
2018-06-16T03:21:38.951Z,156
2018-06-16T03:22:19.467Z,164
2018-06-16T03:22:59.940Z,168
2018-06-16T03:23:40.425Z,176
2018-06-16T03:24:20.920Z,184
2018-06-16T03:25:01.393Z,192
2018-06-16T03:25:41.893Z,200
2018-06-16T03:26:22.401Z,208
2018-06-16T03:27:02.884Z,216
2018-06-16T03:27:43.387Z,228
2018-06-16T03:28:23.866Z,240
2018-06-16T03:29:04.438Z,248
2018-06-16T03:29:44.909Z,260
2018-06-16T03:30:25.393Z,268
2018-06-16T03:31:05.878Z,280
2018-06-16T03:31:46.385Z,288
2018-06-16T03:32:27.007Z,300
2018-06-16T03:33:07.380Z,308
2018-06-16T03:33:47.950Z,316
2018-06-16T03:34:28.409Z,324
2018-06-16T03:35:08.916Z,332
2018-06-16T03:35:49.501Z,336
2018-06-16T03:36:29.988Z,348
2018-06-16T03:37:10.518Z,352
2018-06-16T03:37:50.999Z,360
2018-06-16T03:38:31.519Z,368
2018-06-16T03:39:12.013Z,380
2018-06-16T03:39:52.539Z,384
2018-06-16T03:40:32.983Z,396
2018-06-16T03:41:13.478Z,404
2018-06-16T03:41:53.992Z,412
2018-06-16T03:42:34.507Z,416
2018-06-16T03:43:15.042Z,424
2018-06-16T03:43:55.532Z,432
2018-06-16T03:44:36.045Z,440
2018-06-16T03:45:16.568Z,452
2018-06-16T03:45:57.201Z,468
2018-06-16T03:46:37.795Z,476
2018-06-16T03:47:18.281Z,488
2018-06-16T03:47:59.044Z,500
2018-06-16T03:48:39.512Z,504
2018-06-16T03:49:19.996Z,512
2018-06-16T03:50:00.441Z,516
2018-06-16T03:50:40.976Z,520
2018-06-16T03:51:21.491Z,520
2018-06-16T03:52:01.930Z,516
2018-06-16T03:52:42.461Z,516
2018-06-16T03:53:22.921Z,516
2018-06-16T03:54:03.412Z,512
2018-06-16T03:54:43.919Z,508
2018-06-16T03:55:24.348Z,504
2018-06-16T03:56:04.826Z,504
2018-06-16T03:56:45.370Z,508
2018-06-16T03:57:25.828Z,512
2018-06-16T03:58:06.335Z,516
2018-06-16T03:58:46.868Z,520
2018-06-16T03:59:27.316Z,520
2018-06-16T04:00:07.817Z,516
2018-06-16T04:00:48.314Z,524
2018-06-16T04:01:28.847Z,524
2018-06-16T04:02:09.338Z,532
2018-06-16T04:02:49.909Z,540
2018-06-16T04:03:30.342Z,552
2018-06-16T04:04:10.847Z,568
2018-06-16T04:04:51.400Z,580
2018-06-16T04:05:31.861Z,600
2018-06-16T04:06:13.136Z,616
2018-06-16T04:06:53.628Z,632
2018-06-16T04:07:34.127Z,644
2018-06-16T04:08:14.648Z,652
2018-06-16T04:08:55.127Z,668
2018-06-16T04:09:35.651Z,680
2018-06-16T04:10:16.140Z,696
2018-06-16T04:10:56.635Z,708
2018-06-16T04:11:37.133Z,732
2018-06-16T04:12:17.699Z,752
2018-06-16T04:12:58.219Z,784
2018-06-16T04:13:38.725Z,816
2018-06-16T04:14:19.258Z,860
2018-06-16T04:14:59.768Z,892
2018-06-16T04:15:40.184Z,928
2018-06-16T04:16:20.734Z,956
2018-06-16T04:17:01.240Z,972
2018-06-16T04:17:41.691Z,984
2018-06-16T04:18:22.175Z,984
2018-06-16T04:19:02.713Z,976
2018-06-16T04:19:43.182Z,972
2018-06-16T04:20:23.705Z,964
2018-06-16T04:21:04.228Z,960
2018-06-16T04:21:44.737Z,960
2018-06-16T04:22:25.221Z,968
2018-06-16T04:23:05.714Z,980
2018-06-16T04:23:46.212Z,996
2018-06-16T04:24:26.727Z,1016
2018-06-16T04:25:07.208Z,1024
2018-06-16T04:25:47.733Z,1024
2018-06-16T04:26:28.223Z,1020
2018-06-16T04:27:08.721Z,1012
2018-06-16T04:27:49.239Z,1004
2018-06-16T04:28:29.747Z,1004
2018-06-16T04:29:10.247Z,1004
2018-06-16T04:29:50.723Z,1008
2018-06-16T04:30:31.238Z,1012
2018-06-16T04:31:11.878Z,1016
2018-06-16T04:31:52.420Z,1016
2018-06-16T04:32:32.954Z,1012
2018-06-16T04:33:13.486Z,1000
2018-06-16T04:33:53.972Z,988
2018-06-16T04:34:34.420Z,980
2018-06-16T04:35:15.001Z,976
2018-06-16T04:35:55.543Z,976
2018-06-16T04:36:35.988Z,980
2018-06-16T04:37:16.529Z,980
2018-06-16T04:37:57.021Z,980
2018-06-16T04:38:37.538Z,976
2018-06-16T04:39:18.048Z,976
2018-06-16T04:39:58.558Z,976
2018-06-16T04:40:39.044Z,980
2018-06-16T04:41:19.547Z,980
2018-06-16T04:42:00.035Z,988
2018-06-16T04:42:40.548Z,996
2018-06-16T04:43:21.054Z,1004
2018-06-16T04:44:01.559Z,1020
2018-06-16T04:44:42.115Z,1032
2018-06-16T04:45:22.570Z,1044
2018-06-16T04:46:03.089Z,1052
2018-06-16T04:46:43.592Z,1064
2018-06-16T04:47:24.093Z,1072
2018-06-16T04:48:04.614Z,1080
2018-06-16T04:48:45.109Z,1088
2018-06-16T04:49:25.626Z,1092
2018-06-16T04:50:06.138Z,1100
2018-06-16T04:50:46.642Z,1108
2018-06-16T04:52:44.807Z,1124
2018-06-16T04:53:25.321Z,1132
2018-06-16T04:54:05.821Z,1140
2018-06-16T04:54:46.410Z,1144
2018-06-16T04:55:26.845Z,1144
2018-06-16T04:56:07.349Z,1148
2018-06-16T04:56:47.858Z,1148
2018-06-16T04:57:28.373Z,1148
2018-06-16T04:58:08.908Z,1148
2018-06-16T04:58:49.418Z,1152
2018-06-16T04:59:29.904Z,1152
2018-06-16T05:00:10.407Z,1156
2018-06-16T05:00:50.883Z,1160
2018-06-16T05:01:31.328Z,1164
2018-06-16T05:02:11.925Z,1164
2018-06-16T05:02:52.398Z,1176
2018-06-16T05:03:32.866Z,1184
2018-06-16T05:04:13.323Z,1196
2018-06-16T05:04:53.804Z,1212
2018-06-16T05:05:34.267Z,1228
2018-06-16T05:06:14.790Z,1244
2018-06-16T05:06:55.272Z,1256
2018-06-16T05:07:35.704Z,1272
2018-06-16T05:08:16.245Z,1284
2018-06-16T05:08:56.744Z,1292
2018-06-16T05:09:37.237Z,1300
2018-06-16T05:10:17.690Z,1308
2018-06-16T05:10:58.162Z,1316
2018-06-16T05:11:38.667Z,1316
2018-06-16T05:12:19.219Z,1324
2018-06-16T05:12:59.672Z,1324
2018-06-16T05:13:40.169Z,1328
2018-06-16T05:14:20.662Z,1324
2018-06-16T05:15:01.157Z,1324
2018-06-16T05:15:41.633Z,1332
2018-06-16T05:16:22.134Z,1336
2018-06-16T05:17:02.723Z,1340
2018-06-16T05:17:43.184Z,1348
2018-06-16T05:18:23.635Z,1364
2018-06-16T05:19:04.117Z,1376
2018-06-16T05:19:44.621Z,1396
2018-06-16T05:20:25.133Z,1420
2018-06-16T05:21:05.590Z,1436
2018-06-16T05:21:46.094Z,1460
2018-06-16T05:22:26.731Z,1480
2018-06-16T05:23:07.433Z,1500
2018-06-16T05:23:47.993Z,1520
2018-06-16T05:24:28.392Z,1536
2018-06-16T05:25:08.986Z,1552
2018-06-16T05:25:49.477Z,1568
2018-06-16T05:26:29.830Z,1580
2018-06-16T05:27:10.328Z,1600
2018-06-16T05:27:50.781Z,1616
2018-06-16T05:28:31.293Z,1632
2018-06-16T05:29:11.791Z,1648
2018-06-16T05:29:52.359Z,1668
2018-06-16T05:30:32.876Z,1684
2018-06-16T05:31:13.340Z,1700
2018-06-16T05:31:53.894Z,1720
2018-06-16T05:32:34.413Z,1740
2018-06-16T05:33:14.893Z,1764
2018-06-16T05:33:55.443Z,1792
2018-06-16T05:34:35.938Z,1812
2018-06-16T05:35:16.424Z,1844
2018-06-16T05:35:56.895Z,1876
2018-06-16T05:36:37.355Z,1904
2018-06-16T05:37:17.894Z,1936
2018-06-16T05:37:58.333Z,1972
2018-06-16T05:38:38.874Z,2008
2018-06-16T05:39:19.354Z,2056
2018-06-16T05:39:59.856Z,2100
2018-06-16T05:40:40.308Z,2152
2018-06-16T05:41:20.769Z,2208
2018-06-16T05:42:01.307Z,2252
2018-06-16T05:42:41.801Z,2304
2018-06-16T05:43:22.509Z,2356
2018-06-16T05:44:03.009Z,2408
2018-06-16T05:44:43.584Z,2464
2018-06-16T05:45:24.076Z,2508
2018-06-16T05:46:04.555Z,2556
2018-06-16T05:46:45.002Z,2596
2018-06-16T05:47:25.525Z,2628
2018-06-16T05:48:06.045Z,2660
2018-06-16T05:48:46.505Z,2680
2018-06-16T05:49:27.020Z,2696
2018-06-16T05:50:07.531Z,2712
2018-06-16T05:50:48.042Z,2720
2018-06-16T05:51:28.535Z,2728
2018-06-16T05:52:09.061Z,2728
2018-06-16T05:52:49.510Z,2732
2018-06-16T05:53:30.028Z,2732
2018-06-16T05:54:10.535Z,2736
2018-06-16T05:54:50.994Z,2732
2018-06-16T05:55:31.507Z,2732
2018-06-16T05:56:12.028Z,2724
2018-06-16T05:56:52.546Z,2720
2018-06-16T05:57:33.018Z,2716
2018-06-16T05:58:13.524Z,2708
2018-06-16T05:58:54.052Z,2708
2018-06-16T05:59:34.488Z,2708
2018-06-16T06:00:15.031Z,2704
2018-06-16T06:00:55.482Z,2704
2018-06-16T06:01:35.968Z,2700
2018-06-16T06:02:16.481Z,2704
2018-06-16T06:02:56.947Z,2704
2018-06-16T06:03:37.421Z,2712
2018-06-16T06:04:18.031Z,2728
2018-06-16T06:04:58.590Z,2748
2018-06-16T06:05:38.953Z,2772
2018-06-16T06:06:19.440Z,2804
2018-06-16T06:06:59.969Z,2828
2018-06-16T06:07:40.466Z,2848
2018-06-16T06:08:21.013Z,2868
2018-06-16T06:09:01.483Z,2884
2018-06-16T06:09:42.024Z,2896
2018-06-16T06:10:22.544Z,2900
2018-06-16T06:11:02.983Z,2900
2018-06-16T06:11:43.503Z,2892
2018-06-16T06:12:24.013Z,2884
2018-06-16T06:13:04.488Z,2880
2018-06-16T06:13:44.952Z,2888
2018-06-16T06:14:25.450Z,2900
2018-06-16T06:15:05.954Z,2928
2018-06-16T06:15:46.477Z,2964
2018-06-16T06:16:26.947Z,3004
2018-06-16T06:17:07.503Z,3040
2018-06-16T06:17:47.961Z,3076
2018-06-16T06:18:28.448Z,3108
2018-06-16T06:19:08.984Z,3128
2018-06-16T06:19:49.502Z,3140
2018-06-16T06:20:29.969Z,3148
2018-06-16T06:21:10.468Z,3152
2018-06-16T06:21:50.931Z,3148
2018-06-16T06:22:31.466Z,3152
2018-06-16T06:23:11.984Z,3168
2018-06-16T06:23:52.493Z,3196
2018-06-16T06:24:32.932Z,3240
2018-06-16T06:25:13.473Z,3300
2018-06-16T06:25:53.945Z,3344
2018-06-16T06:26:34.424Z,3384
2018-06-16T06:27:14.942Z,3408
2018-06-16T06:27:55.471Z,3452
2018-06-16T06:28:35.969Z,3516
2018-06-16T06:29:16.510Z,3568
2018-06-16T06:29:57.001Z,3624
2018-06-16T06:30:37.473Z,3684
2018-06-16T06:31:18.113Z,3756
2018-06-16T06:31:58.659Z,3836
2018-06-16T06:32:39.133Z,3904
2018-06-16T06:33:19.655Z,3972
2018-06-16T06:34:00.225Z,4028
2018-06-16T06:34:40.723Z,4092
2018-06-16T06:35:21.215Z,4144
2018-06-16T06:36:01.777Z,4188
2018-06-16T06:36:42.264Z,4232
2018-06-16T06:37:22.767Z,4276
2018-06-16T06:38:03.262Z,4332
2018-06-16T06:38:43.795Z,4380
2018-06-16T06:39:24.239Z,4440
2018-06-16T06:40:04.808Z,4500
2018-06-16T06:40:45.441Z,4576
2018-06-16T06:41:25.949Z,4664
2018-06-16T06:42:06.442Z,4744
2018-06-16T06:42:47.030Z,4820
2018-06-16T06:43:27.652Z,4876
2018-06-16T06:44:08.100Z,4912
2018-06-16T06:44:48.651Z,4940
2018-06-16T06:45:29.172Z,4960
2018-06-16T06:46:09.642Z,4976
2018-06-16T06:46:50.325Z,4976
2018-06-16T06:47:30.849Z,4988
2018-06-16T06:48:11.446Z,5004
2018-06-16T06:48:51.950Z,5032
2018-06-16T06:49:32.500Z,5072
2018-06-16T06:50:12.975Z,5112
2018-06-16T06:50:53.462Z,5140
2018-06-16T06:51:34.009Z,5156
2018-06-16T06:52:14.486Z,5176
2018-06-16T06:52:55.472Z,5236
2018-06-16T06:53:35.985Z,5316
2018-06-16T06:54:16.481Z,5408
2018-06-16T06:54:57.011Z,5512
2018-06-16T06:55:37.474Z,5616
2018-06-16T06:56:18.007Z,5712
2018-06-16T06:56:58.989Z,5788
2018-06-16T06:57:39.532Z,5860
2018-06-16T06:58:20.636Z,5944
2018-06-16T06:59:01.006Z,6056
2018-06-16T06:59:41.480Z,6192
2018-06-16T07:00:22.252Z,6320
2018-06-16T07:01:02.767Z,6420
2018-06-16T07:01:43.365Z,6524
2018-06-16T07:02:23.903Z,6600
2018-06-16T07:03:04.527Z,6660
2018-06-16T07:03:44.957Z,6696
2018-06-16T07:04:25.464Z,6728
2018-06-16T07:05:05.968Z,6740
2018-06-16T07:05:46.655Z,6752
2018-06-16T07:06:27.360Z,6756
2018-06-16T07:07:07.899Z,6768
2018-06-16T07:07:48.550Z,6792
2018-06-16T07:08:29.066Z,6828
2018-06-16T07:09:09.568Z,6872
2018-06-16T07:09:50.094Z,6924
2018-06-16T07:10:30.587Z,6984
2018-06-16T07:11:11.025Z,7056
2018-06-16T07:11:52.715Z,7132
2018-06-16T07:12:33.192Z,7204
2018-06-16T07:13:13.778Z,7280
2018-06-16T07:13:54.246Z,7352
2018-06-16T07:14:34.778Z,7412
2018-06-16T07:15:15.257Z,7480
2018-06-16T07:15:55.744Z,7552
2018-06-16T07:16:36.255Z,7628
2018-06-16T07:17:16.814Z,7692
2018-06-16T07:17:57.266Z,7740
2018-06-16T07:18:37.898Z,7764
2018-06-16T07:19:18.446Z,7756
2018-06-16T07:19:58.983Z,7724
2018-06-16T07:20:39.461Z,7684
2018-06-16T07:21:19.985Z,7636
2018-06-16T07:22:00.469Z,7620
2018-06-16T07:22:40.939Z,7604
2018-06-16T07:23:21.430Z,7612
2018-06-16T07:24:01.931Z,7640
2018-06-16T07:24:42.425Z,7660
2018-06-16T07:25:22.992Z,7664
2018-06-16T07:26:03.541Z,7636
2018-06-16T07:26:44.031Z,7556
2018-06-16T07:27:24.567Z,7452
2018-06-16T07:28:05.067Z,7328
2018-06-16T07:28:45.522Z,7204
2018-06-16T07:29:26.026Z,7100
2018-06-16T07:30:06.537Z,7016
2018-06-16T07:30:47.068Z,6964
2018-06-16T07:31:27.551Z,6940
2018-06-16T07:32:08.082Z,6952
2018-06-16T07:32:48.544Z,6988
2018-06-16T07:33:29.074Z,7040
2018-06-16T07:34:09.581Z,7088
2018-06-16T07:34:50.096Z,7120
2018-06-16T07:35:30.649Z,7152
2018-06-16T07:36:11.221Z,7160
2018-06-16T07:36:51.642Z,7168
2018-06-16T07:37:32.133Z,7176
2018-06-16T07:38:12.610Z,7208
2018-06-16T07:38:53.176Z,7228
2018-06-16T07:39:33.656Z,7272
2018-06-16T07:40:14.131Z,7324
2018-06-16T07:40:54.606Z,7380
2018-06-16T07:41:35.310Z,7428
2018-06-16T07:42:15.781Z,7476
2018-06-16T07:42:56.250Z,7500
2018-06-16T07:43:36.749Z,7508
2018-06-16T07:44:17.345Z,7516
2018-06-16T07:44:57.822Z,7512
2018-06-16T07:45:38.354Z,7508
2018-06-16T07:46:18.840Z,7520
2018-06-16T07:46:59.345Z,7532
2018-06-16T07:47:39.836Z,7548
2018-06-16T07:48:20.320Z,7564
2018-06-16T07:49:00.804Z,7600
2018-06-16T07:49:41.303Z,7628
2018-06-16T07:50:21.798Z,7644
2018-06-16T07:51:02.322Z,7640
2018-06-16T07:51:42.860Z,7628
2018-06-16T07:52:23.385Z,7596
2018-06-16T07:53:03.874Z,7548
2018-06-16T07:53:44.351Z,7496
2018-06-16T07:54:24.866Z,7456
2018-06-16T07:55:05.502Z,7440
2018-06-16T07:55:47.225Z,7448
2018-06-16T07:56:26.884Z,7472
2018-06-16T07:57:07.396Z,7512
2018-06-16T07:57:47.877Z,7568
2018-06-16T07:58:28.408Z,7640
2018-06-16T07:59:08.926Z,7720
2018-06-16T07:59:49.441Z,7808
2018-06-16T08:00:29.935Z,7884
2018-06-16T08:01:10.437Z,7952
2018-06-16T08:01:50.947Z,8000
2018-06-16T08:02:31.478Z,8036
2018-06-16T08:03:11.987Z,8048
2018-06-16T08:03:52.567Z,8036
2018-06-16T08:04:33.103Z,8008
2018-06-16T08:05:13.654Z,7980
2018-06-16T08:05:54.086Z,7944
2018-06-16T08:06:34.544Z,7928
2018-06-16T08:07:15.060Z,7684
2018-06-16T08:07:55.551Z,8016
2018-06-16T08:08:36.106Z,8080
2018-06-16T08:09:16.588Z,8160
2018-06-16T08:09:57.118Z,8264
2018-06-16T08:10:37.643Z,8392
2018-06-16T08:11:18.182Z,8520
2018-06-16T08:11:58.660Z,8648
2018-06-16T08:12:39.204Z,8796
2018-06-16T08:13:19.732Z,8960
2018-06-16T08:14:00.272Z,9132
2018-06-16T08:14:40.805Z,9296
2018-06-16T08:15:21.350Z,9432
2018-06-16T08:16:01.851Z,9536
2018-06-16T08:16:42.423Z,9668
2018-06-16T08:17:22.859Z,9624
2018-06-16T08:18:03.418Z,9604
2018-06-16T08:18:43.870Z,9552
2018-06-16T08:19:24.367Z,9460
2018-06-16T08:20:04.865Z,9324
2018-06-16T08:20:45.365Z,9228
2018-06-16T08:21:25.847Z,9136
2018-06-16T08:22:06.345Z,9040
2018-06-16T08:22:46.916Z,8940
2018-06-16T08:23:27.434Z,8848
2018-06-16T08:24:07.940Z,8724
2018-06-16T08:24:48.447Z,8588
2018-06-16T08:25:28.953Z,8444
2018-06-16T08:26:09.414Z,8288
2018-06-16T08:26:50.022Z,8156
2018-06-16T08:27:30.475Z,7980
2018-06-16T08:28:10.922Z,7856
2018-06-16T08:28:51.477Z,7772
2018-06-16T08:29:31.988Z,7724
2018-06-16T08:30:12.522Z,7836
2018-06-16T08:30:52.966Z,7780
2018-06-16T08:31:33.522Z,8152
2018-06-16T08:32:14.033Z,8352
2018-06-16T08:32:54.498Z,8128
2018-06-16T08:33:35.060Z,7532
2018-06-16T08:34:15.545Z,7368
2018-06-16T08:34:56.036Z,7168
2018-06-16T08:35:36.508Z,6756
2018-06-16T08:36:17.031Z,6580
2018-06-16T08:36:57.521Z,6408
2018-06-16T08:37:37.984Z,6124
2018-06-16T08:38:18.525Z,6076
2018-06-16T08:38:59.036Z,5800
2018-06-16T08:39:39.539Z,6240
2018-06-16T08:40:20.066Z,5960
2018-06-16T08:41:00.594Z,5824
2018-06-16T08:41:41.089Z,5732
2018-06-16T08:42:21.667Z,5624
2018-06-16T08:43:02.130Z,5680
2018-06-16T08:43:42.662Z,5892
2018-06-16T08:44:23.186Z,5472
2018-06-16T08:45:03.664Z,5472
2018-06-16T08:45:44.218Z,5404
2018-06-16T08:46:24.658Z,5692
2018-06-16T08:47:05.182Z,5912
2018-06-16T08:47:45.629Z,5804
2018-06-16T08:48:26.199Z,5800
2018-06-16T08:49:06.689Z,5756
2018-06-16T08:49:47.194Z,5832
2018-06-16T08:50:27.733Z,5720
2018-06-16T08:51:08.229Z,5744
2018-06-16T08:51:48.783Z,5768
2018-06-16T08:52:29.288Z,5776
2018-06-16T08:53:09.858Z,5764
2018-06-16T08:53:50.412Z,5864
2018-06-16T08:54:30.875Z,5888
2018-06-16T08:55:11.592Z,5952
2018-06-16T08:55:52.063Z,5948
2018-06-16T08:56:32.589Z,6064
2018-06-16T08:57:13.141Z,6116
2018-06-16T08:57:53.703Z,6120
2018-06-16T08:58:34.200Z,6076
2018-06-16T08:59:14.749Z,6100
2018-06-16T08:59:55.244Z,6144
2018-06-16T09:00:35.772Z,6204
2018-06-16T09:01:16.261Z,6252
2018-06-16T09:01:56.727Z,6288
2018-06-16T09:02:37.238Z,6316
2018-06-16T09:03:17.733Z,6232
2018-06-16T09:03:58.226Z,6216
2018-06-16T09:04:38.689Z,6240
2018-06-16T09:05:19.226Z,6248
2018-06-16T09:05:59.684Z,6344
2018-06-16T09:06:40.189Z,6484
2018-06-16T09:07:20.718Z,6428
2018-06-16T09:08:01.269Z,6316
2018-06-16T09:08:41.728Z,6216
2018-06-16T09:09:22.271Z,6180
2018-06-16T09:10:02.768Z,6148
2018-06-16T09:10:43.306Z,6076
2018-06-16T09:11:23.746Z,6044
2018-06-16T09:12:04.279Z,6068
2018-06-16T09:12:44.760Z,6160
2018-06-16T09:13:25.268Z,6156
2018-06-16T09:14:05.793Z,6156
2018-06-16T09:14:46.260Z,6236
2018-06-16T09:15:26.790Z,6124
2018-06-16T09:16:07.302Z,5840
2018-06-16T09:16:47.820Z,5900
2018-06-16T09:17:28.291Z,5708
2018-06-16T09:18:08.803Z,5592
2018-06-16T09:18:49.320Z,5484
2018-06-16T09:19:29.802Z,5412
2018-06-16T09:20:10.312Z,5324
2018-06-16T09:20:50.768Z,5172
2018-06-16T09:21:31.263Z,5004
2018-06-16T09:22:11.788Z,5012
2018-06-16T09:22:52.288Z,4980
2018-06-16T09:23:32.820Z,4912